createdAt,value
2019-05-14T00:01:03.222Z,7.20
2019-05-14T00:03:38.314Z,6.33
2019-05-14T00:06:07.651Z,6.30
2019-05-14T00:08:36.966Z,5.97
2019-05-14T00:11:06.290Z,5.90
2019-05-14T00:13:54.710Z,5.70
2019-05-14T00:16:24.386Z,5.73
2019-05-14T00:19:01.676Z,6.70
2019-05-14T00:21:42.328Z,6.03
2019-05-14T00:24:18.050Z,6.23
2019-05-14T00:26:47.371Z,5.70
2019-05-14T00:29:16.730Z,5.60
2019-05-14T00:31:46.054Z,5.70
2019-05-14T00:34:15.382Z,6.67
2019-05-14T00:36:44.708Z,6.30
2019-05-14T00:39:33.121Z,6.40
2019-05-14T00:42:02.456Z,6.37
2019-05-14T00:44:32.389Z,6.30
2019-05-14T00:47:08.375Z,6.17
2019-05-14T00:49:37.699Z,6.60
2019-05-14T00:52:07.030Z,6.35
2019-05-14T00:54:36.359Z,5.60
2019-05-14T00:57:05.678Z,6.20
2019-05-14T00:59:35.012Z,6.07
2019-05-14T01:02:04.405Z,6.53
2019-05-14T01:04:39.381Z,6.37
2019-05-14T01:07:08.721Z,6.92
2019-05-14T01:09:57.135Z,6.73
2019-05-14T01:12:26.484Z,6.08
2019-05-14T01:15:07.859Z,6.87
2019-05-14T01:17:32.954Z,6.53
2019-05-14T01:23:04.481Z,6.87
2019-05-14T01:25:33.808Z,7.17
2019-05-14T01:28:03.141Z,6.10
2019-05-14T01:30:32.456Z,6.10
2019-05-14T01:33:02.045Z,5.93
2019-05-14T01:35:42.529Z,6.50
2019-05-14T01:38:11.873Z,6.45
2019-05-14T01:40:41.959Z,6.53
2019-05-14T01:43:22.187Z,6.30
2019-05-14T01:45:58.195Z,6.33
2019-05-14T01:48:27.588Z,5.90
2019-05-14T01:50:56.905Z,6.67
2019-05-14T01:53:45.573Z,5.90
2019-05-14T01:56:14.896Z,6.40
2019-05-14T01:58:44.219Z,5.73
2019-05-14T02:01:13.551Z,6.83
2019-05-14T02:03:42.888Z,6.00
2019-05-14T02:06:12.225Z,6.78
2019-05-14T02:08:41.586Z,6.70
2019-05-14T02:11:12.116Z,6.17
2019-05-14T02:14:02.395Z,6.80
2019-05-14T02:16:37.380Z,6.33
2019-05-14T02:19:07.172Z,6.90
2019-05-14T02:21:36.513Z,7.05
2019-05-14T02:24:05.836Z,5.45
2019-05-14T02:26:35.171Z,6.50
2019-05-14T02:29:04.565Z,5.67
2019-05-14T02:31:33.899Z,6.85
2019-05-14T02:34:03.247Z,7.50
2019-05-14T02:36:32.579Z,6.12
2019-05-14T02:39:01.906Z,6.80
2019-05-14T02:41:31.256Z,6.97
2019-05-14T02:44:00.582Z,6.47
2019-05-14T02:46:29.980Z,7.10
2019-05-14T02:48:59.660Z,5.95
2019-05-14T02:51:38.921Z,6.70
2019-05-14T02:54:12.348Z,5.55
2019-05-14T02:57:00.031Z,6.65
2019-05-14T02:59:30.458Z,6.03
2019-05-14T03:02:09.569Z,6.35
2019-05-14T03:04:49.548Z,7.03
2019-05-14T03:07:23.189Z,6.90
2019-05-14T03:09:52.521Z,7.30
2019-05-14T03:12:21.918Z,6.87
2019-05-14T03:14:51.415Z,6.92
2019-05-14T03:17:20.860Z,6.95
2019-05-14T03:23:03.223Z,6.62
2019-05-14T03:25:42.657Z,7.78
2019-05-14T03:28:12.075Z,7.35
2019-05-14T03:31:02.765Z,7.75
2019-05-14T03:33:44.048Z,7.40
2019-05-14T03:36:25.777Z,6.92
2019-05-14T03:38:54.809Z,7.12
2019-05-14T03:41:24.283Z,8.35
2019-05-14T03:43:53.624Z,6.95
2019-05-14T03:46:41.210Z,7.70
2019-05-14T03:49:13.159Z,7.53
2019-05-14T03:52:01.588Z,8.58
2019-05-14T03:54:30.930Z,7.70
2019-05-14T03:57:00.668Z,7.37
2019-05-14T03:59:50.546Z,8.00
2019-05-14T04:18:01.700Z,7.85
2019-05-14T04:21:10.944Z,8.20
2019-05-14T04:33:04.855Z,8.50
2019-05-14T04:35:34.277Z,7.83
2019-05-14T04:38:03.682Z,7.50
2019-05-14T04:40:33.081Z,8.78
2019-05-14T04:46:19.903Z,7.72
2019-05-14T04:48:53.490Z,7.67
2019-05-14T04:51:22.839Z,8.25
2019-05-14T04:53:52.182Z,7.60
2019-05-14T04:56:41.113Z,7.60
2019-05-14T04:59:10.815Z,8.23
2019-05-14T05:01:49.306Z,8.13
2019-05-14T05:04:23.390Z,8.43
2019-05-14T05:06:52.737Z,8.30
2019-05-14T05:09:22.056Z,8.80
2019-05-14T05:11:51.377Z,9.77
2019-05-14T05:14:23.734Z,8.37
2019-05-14T05:16:59.752Z,8.80
2019-05-14T05:19:33.958Z,8.63
2019-05-14T05:22:03.279Z,8.77
2019-05-14T05:24:38.253Z,8.60
2019-05-14T05:27:14.698Z,9.07
2019-05-14T05:29:44.103Z,8.50
2019-05-14T05:32:32.522Z,8.30
2019-05-14T05:35:01.856Z,9.03
2019-05-14T05:37:50.577Z,7.83
2019-05-14T05:40:20.007Z,8.03
2019-05-14T05:42:49.316Z,7.83
2019-05-14T05:45:18.755Z,7.63
2019-05-14T05:47:57.469Z,7.70
2019-05-14T05:50:24.825Z,8.50
2019-05-14T05:52:54.171Z,9.70
2019-05-14T05:55:23.483Z,8.87
2019-05-14T05:57:52.807Z,8.07
2019-05-14T06:00:41.669Z,7.00
2019-05-14T06:03:11.398Z,7.90
2019-05-14T06:05:49.256Z,6.50
2019-05-14T06:08:24.517Z,7.90
2019-05-14T06:10:53.852Z,7.80
2019-05-14T06:13:23.172Z,7.30
2019-05-14T06:15:52.615Z,7.70
2019-05-14T06:18:22.317Z,7.30
2019-05-14T06:20:58.796Z,6.70
2019-05-14T06:23:28.654Z,8.83
2019-05-14T06:26:32.469Z,8.60
2019-05-14T06:28:54.905Z,6.77
2019-05-14T06:31:24.221Z,8.17
2019-05-14T06:33:53.542Z,7.07
2019-05-14T06:36:22.896Z,7.50
2019-05-14T06:38:52.214Z,6.23
2019-05-14T06:41:21.590Z,7.70
2019-05-14T06:43:50.902Z,7.03
2019-05-14T06:46:20.221Z,7.83
2019-05-14T06:48:49.559Z,7.40
2019-05-14T06:51:20.083Z,7.63
2019-05-14T06:54:09.306Z,7.90
2019-05-14T06:56:49.520Z,6.97
2019-05-14T06:59:31.490Z,7.20
2019-05-14T07:02:00.819Z,7.90
2019-05-14T07:04:30.145Z,7.40
2019-05-14T07:06:59.482Z,7.43
2019-05-14T07:09:29.151Z,7.27
2019-05-14T07:12:05.579Z,7.63
2019-05-14T07:14:34.918Z,7.60
2019-05-14T07:17:04.245Z,7.70
2019-05-14T07:19:33.597Z,7.70
2019-05-14T07:22:02.921Z,6.80
2019-05-14T07:24:32.243Z,8.23
2019-05-14T07:27:01.572Z,7.37
2019-05-14T07:29:30.900Z,7.23
2019-05-14T07:32:00.229Z,6.70
2019-05-14T07:34:29.564Z,7.20
2019-05-14T07:36:58.931Z,7.57
2019-05-14T07:39:29.134Z,6.53
2019-05-14T07:42:04.809Z,6.97
2019-05-14T07:44:34.120Z,6.83
2019-05-14T07:47:15.670Z,7.23
2019-05-14T07:49:44.993Z,7.60
2019-05-14T07:52:14.318Z,7.03
2019-05-14T07:54:43.648Z,7.13
2019-05-14T07:57:12.900Z,6.27
2019-05-14T07:59:42.233Z,6.87
2019-05-14T08:02:12.918Z,7.53
2019-05-14T08:05:01.708Z,8.23
2019-05-14T08:07:31.029Z,7.60
2019-05-14T08:10:00.362Z,6.70
2019-05-14T08:12:29.695Z,7.43
2019-05-14T08:15:14.073Z,7.90
2019-05-14T08:17:35.221Z,6.97
2019-05-14T08:20:24.185Z,6.40
2019-05-14T08:22:53.518Z,6.40
2019-05-14T08:25:22.837Z,6.47
2019-05-14T08:28:04.744Z,6.87
2019-05-14T08:30:34.076Z,6.07
2019-05-14T08:33:03.460Z,6.93
2019-05-14T08:35:34.096Z,7.47
2019-05-14T08:38:08.325Z,7.47
2019-05-14T08:40:40.391Z,6.97
2019-05-14T08:43:09.729Z,7.13
2019-05-14T08:45:39.121Z,6.10
2019-05-14T08:48:09.205Z,7.47
2019-05-14T08:51:18.598Z,6.30
2019-05-14T08:54:08.350Z,6.10
2019-05-14T08:56:44.530Z,7.53
2019-05-14T08:59:28.494Z,6.80
2019-05-14T09:02:05.394Z,6.83
2019-05-14T09:04:33.496Z,7.83
2019-05-14T09:07:02.847Z,6.50
2019-05-14T09:09:32.113Z,7.10
2019-05-14T09:12:13.691Z,6.97
2019-05-14T09:14:43.015Z,6.70
2019-05-14T09:17:14.822Z,7.20
2019-05-14T09:20:07.009Z,7.27
2019-05-14T09:23:03.020Z,6.50
2019-05-14T09:25:32.393Z,6.80
2019-05-14T09:28:01.717Z,7.10
2019-05-14T09:30:31.091Z,7.70
2019-05-14T09:33:23.597Z,8.90
2019-05-14T09:36:18.025Z,7.97
2019-05-14T09:38:51.766Z,7.97
2019-05-14T09:41:33.720Z,8.47
2019-05-14T09:44:24.119Z,7.77
2019-05-14T09:47:12.804Z,6.57
2019-05-14T09:49:42.133Z,6.20
2019-05-14T09:52:11.459Z,6.53
2019-05-14T09:54:52.682Z,7.10
2019-05-14T09:57:22.011Z,6.57
2019-05-14T09:59:51.356Z,6.20
2019-05-14T10:02:33.440Z,7.33
2019-05-14T10:05:14.770Z,7.30
2019-05-14T10:07:44.119Z,6.30
2019-05-14T10:10:30.040Z,6.47
2019-05-14T10:13:00.932Z,6.97
2019-05-14T10:15:53.417Z,6.97
2019-05-14T10:18:23.014Z,7.63
2019-05-14T10:20:52.352Z,6.30
2019-05-14T10:23:21.680Z,7.13
2019-05-14T10:25:50.998Z,6.37
2019-05-14T10:28:32.073Z,5.87
2019-05-14T10:31:03.726Z,5.40
2019-05-14T10:34:01.215Z,6.37
2019-05-14T10:36:49.897Z,6.70
2019-05-14T10:39:19.371Z,6.83
2019-05-14T10:42:08.862Z,6.10
2019-05-14T10:45:12.871Z,6.27
2019-05-14T10:47:41.463Z,7.17
2019-05-14T10:50:22.461Z,6.77
2019-05-14T10:52:51.802Z,7.00
2019-05-14T10:55:21.105Z,6.50
2019-05-14T10:57:54.086Z,6.80
2019-05-14T11:00:41.947Z,6.20
2019-05-14T11:03:30.744Z,6.60
2019-05-14T11:06:19.401Z,6.37
2019-05-14T11:08:53.893Z,6.80
2019-05-14T11:11:23.287Z,6.10
2019-05-14T11:13:52.615Z,6.17
2019-05-14T11:16:21.948Z,6.33
2019-05-14T11:18:51.272Z,5.90
2019-05-14T11:21:26.400Z,5.90
2019-05-14T11:23:51.639Z,6.50
2019-05-14T11:26:20.980Z,6.03
2019-05-14T11:28:50.297Z,6.40
2019-05-14T11:31:19.629Z,6.13
2019-05-14T11:33:49.836Z,6.63
2019-05-14T11:36:19.340Z,6.23
2019-05-14T11:38:50.589Z,6.67
2019-05-14T11:41:20.741Z,7.17
2019-05-14T11:43:50.182Z,6.10
2019-05-14T11:46:29.564Z,7.87
2019-05-14T11:48:50.469Z,7.80
2019-05-14T11:51:45.755Z,6.53
2019-05-14T11:53:51.134Z,6.20
2019-05-14T11:56:20.457Z,7.50
2019-05-14T11:58:49.780Z,6.13
2019-05-14T12:01:19.228Z,6.20
2019-05-14T12:03:50.504Z,6.70
2019-05-14T12:06:19.573Z,6.40
2019-05-14T12:08:48.997Z,7.20
2019-05-14T12:11:19.349Z,6.20
2019-05-14T12:13:49.043Z,6.37
2019-05-14T12:16:18.413Z,5.70
2019-05-14T12:18:48.436Z,6.20
2019-05-14T12:21:18.156Z,5.93
2019-05-14T12:23:47.497Z,6.23
2019-05-14T12:26:19.172Z,6.10
2019-05-14T12:28:49.454Z,5.10
2019-05-14T12:31:18.972Z,6.27
2019-05-14T12:33:48.989Z,6.10
2019-05-14T12:36:19.336Z,5.80
2019-05-14T12:38:48.954Z,5.93
2019-05-14T12:41:19.313Z,5.97
2019-05-14T12:43:48.989Z,6.10
2019-05-14T12:46:20.083Z,5.93
2019-05-14T12:48:49.659Z,5.90
2019-05-14T12:51:19.178Z,5.20
2019-05-14T12:53:49.013Z,5.03
2019-05-14T12:56:18.928Z,5.60
2019-05-14T12:58:49.075Z,5.13
2019-05-14T13:01:19.972Z,5.10
2019-05-14T13:03:49.657Z,4.70
2019-05-14T13:06:19.335Z,5.27
2019-05-14T13:08:49.274Z,5.47
2019-05-14T13:11:19.161Z,5.63
2019-05-14T13:13:49.149Z,4.57
2019-05-14T13:16:19.408Z,5.10
2019-05-14T13:18:49.818Z,4.97
2019-05-14T13:21:19.715Z,5.47
2019-05-14T13:23:49.024Z,5.30
2019-05-14T13:26:19.076Z,5.23
2019-05-14T13:28:50.660Z,5.13
2019-05-14T13:31:19.678Z,5.30
2019-05-14T13:33:49.261Z,5.27
2019-05-14T13:36:20.562Z,4.70
2019-05-14T13:38:49.636Z,4.57
2019-05-14T13:41:19.476Z,4.80
2019-05-14T13:43:50.498Z,5.03
2019-05-14T13:46:20.071Z,5.00
2019-05-14T13:48:50.102Z,4.20
2019-05-14T13:51:19.718Z,5.07
2019-05-14T13:53:49.861Z,4.83
2019-05-14T13:56:19.440Z,4.77
2019-05-14T13:58:49.133Z,5.23
2019-05-14T14:01:19.247Z,5.00
2019-05-14T14:04:01.793Z,5.10
2019-05-14T14:06:20.915Z,4.33
2019-05-14T14:08:50.353Z,4.60
2019-05-14T14:11:19.796Z,4.87
2019-05-14T14:13:49.248Z,5.00
2019-05-14T14:16:19.666Z,4.77
2019-05-14T14:18:50.208Z,4.60
2019-05-14T14:21:20.018Z,4.53
2019-05-14T14:23:49.930Z,4.77
2019-05-14T14:26:19.478Z,4.50
2019-05-14T14:28:49.508Z,4.80
2019-05-14T14:31:19.230Z,4.20
2019-05-14T14:33:49.003Z,4.40
2019-05-14T14:36:19.929Z,5.07
2019-05-14T14:38:49.933Z,4.60
2019-05-14T14:41:19.711Z,4.77
2019-05-14T14:43:53.282Z,5.00
2019-05-14T14:46:20.181Z,4.73
2019-05-14T14:48:49.825Z,4.63
2019-05-14T14:51:19.679Z,4.97
2019-05-14T14:53:59.243Z,4.37
2019-05-14T14:56:20.270Z,4.70
2019-05-14T14:58:49.652Z,4.80
2019-05-14T15:01:19.798Z,4.60
2019-05-14T15:03:50.440Z,4.60
2019-05-14T15:06:20.222Z,4.83
2019-05-14T15:08:50.001Z,4.77
2019-05-14T15:11:19.497Z,4.87
2019-05-14T15:13:48.823Z,4.80
2019-05-14T15:16:20.071Z,4.70
2019-05-14T15:18:49.897Z,5.03
2019-05-14T15:21:19.455Z,4.20
2019-05-14T15:24:05.552Z,4.90
2019-05-14T15:26:20.219Z,4.90
2019-05-14T15:28:49.767Z,4.40
2019-05-14T15:31:19.380Z,4.90
2019-05-14T15:33:50.948Z,5.30
2019-05-14T15:36:19.937Z,5.13
2019-05-14T15:38:49.237Z,4.90
2019-05-14T15:41:20.115Z,4.90
2019-05-14T15:43:49.773Z,4.87
2019-05-14T15:46:19.089Z,4.60
2019-05-14T15:48:48.868Z,5.00
2019-05-14T15:51:19.505Z,4.20
2019-05-14T15:54:05.637Z,4.60
2019-05-14T15:56:20.488Z,5.07
2019-05-14T15:58:49.816Z,5.13
2019-05-14T16:01:19.518Z,5.00
2019-05-14T16:03:48.971Z,5.50
2019-05-14T16:06:19.296Z,5.10
2019-05-14T16:08:49.058Z,6.00
2019-05-14T16:11:18.873Z,5.50
2019-05-14T16:13:49.296Z,4.80
2019-05-14T16:16:19.715Z,5.57
2019-05-14T16:18:49.146Z,4.80
2019-05-14T16:21:18.627Z,4.50
2019-05-14T16:23:47.943Z,4.70
2019-05-14T16:26:18.768Z,4.93
2019-05-14T16:28:52.337Z,4.90
2019-05-14T16:31:25.190Z,5.10
2019-05-14T16:33:54.457Z,4.57
2019-05-14T16:36:23.769Z,4.23
2019-05-14T16:38:53.093Z,4.20
2019-05-14T16:41:22.412Z,4.10
2019-05-14T16:43:51.749Z,4.40
2019-05-14T16:46:21.068Z,4.20
2019-05-14T16:48:50.389Z,4.23
2019-05-14T16:51:19.719Z,4.80
2019-05-14T16:53:49.128Z,4.30
2019-05-14T16:56:19.100Z,4.80
2019-05-14T16:58:48.701Z,4.30
2019-05-14T17:01:19.339Z,4.43
2019-05-14T17:03:49.453Z,4.70
2019-05-14T17:06:19.121Z,4.90
2019-05-14T17:08:49.034Z,4.43
2019-05-14T17:11:18.558Z,4.17
2019-05-14T17:14:08.679Z,5.07
2019-05-14T17:16:43.974Z,4.43
2019-05-14T17:19:38.679Z,4.63
2019-05-14T17:22:32.660Z,4.20
2019-05-14T17:24:58.692Z,4.67
2019-05-14T17:27:34.813Z,4.70
2019-05-14T17:33:39.414Z,4.60
2019-05-14T17:36:14.562Z,4.90
2019-05-14T17:38:43.903Z,4.60
2019-05-14T17:41:25.902Z,4.50
2019-05-14T17:43:55.229Z,4.57
2019-05-14T17:47:02.994Z,4.50
2019-05-14T17:49:32.330Z,4.43
2019-05-14T17:52:21.979Z,4.23
2019-05-14T17:54:57.701Z,4.30
2019-05-14T17:57:34.099Z,4.33
2019-05-14T18:00:29.136Z,4.07
2019-05-14T18:02:59.180Z,4.67
2019-05-14T18:05:38.986Z,4.93
2019-05-14T18:08:09.288Z,4.70
2019-05-14T18:10:44.862Z,4.70
2019-05-14T18:13:14.181Z,4.10
2019-05-14T18:15:43.501Z,4.00
2019-05-14T18:18:12.871Z,4.33
2019-05-14T18:20:48.841Z,4.47
2019-05-14T18:23:23.645Z,5.23
2019-05-14T18:26:04.999Z,4.87
2019-05-14T18:29:09.110Z,3.87
2019-05-14T18:31:44.223Z,3.87
2019-05-14T18:34:28.892Z,4.10
2019-05-14T18:37:00.664Z,4.87
2019-05-14T18:39:48.518Z,3.90
2019-05-14T18:42:19.101Z,4.77
2019-05-14T18:45:48.152Z,4.70
2019-05-14T18:48:19.394Z,4.47
2019-05-14T18:51:09.001Z,5.17
2019-05-14T18:53:49.071Z,3.83
2019-05-14T18:56:29.372Z,4.37
2019-05-14T18:59:05.400Z,4.37
2019-05-14T19:01:34.755Z,4.57
2019-05-14T19:04:04.065Z,4.60
2019-05-14T19:06:33.869Z,4.20
2019-05-14T19:09:14.224Z,3.83
2019-05-14T19:11:43.547Z,5.07
2019-05-14T19:14:12.865Z,4.43
2019-05-14T19:16:42.210Z,4.37
2019-05-14T19:19:11.527Z,4.67
2019-05-14T19:21:40.986Z,4.60
2019-05-14T19:24:10.336Z,5.07
2019-05-14T19:26:40.558Z,4.60
2019-05-14T19:29:30.032Z,4.47
2019-05-14T19:31:59.351Z,4.60
2019-05-14T19:34:28.874Z,4.30
2019-05-14T19:37:05.192Z,4.70
2019-05-14T19:39:34.757Z,4.43
2019-05-14T19:42:18.143Z,4.23
2019-05-14T19:44:48.292Z,5.17
2019-05-14T19:47:36.830Z,4.50
2019-05-14T19:53:40.214Z,5.33
2019-05-14T19:56:09.545Z,4.50
2019-05-14T19:58:38.869Z,5.13
2019-05-14T20:01:09.102Z,5.10
2019-05-14T20:03:44.777Z,4.90
2019-05-14T20:06:14.122Z,5.03
2019-05-14T20:08:43.438Z,5.30
2019-05-14T20:11:12.761Z,4.90
2019-05-14T20:13:42.105Z,5.73
2019-05-14T20:16:11.416Z,5.87
2019-05-14T20:18:40.740Z,4.77
2019-05-14T20:21:10.324Z,5.37
2019-05-14T20:23:39.669Z,4.90
2019-05-14T20:26:09.350Z,5.90
2019-05-14T20:28:39.197Z,5.40
2019-05-14T20:31:29.701Z,5.93
2019-05-14T20:34:05.466Z,5.10
2019-05-14T20:36:34.781Z,4.93
2019-05-14T20:39:44.040Z,5.77
2019-05-14T20:42:13.361Z,5.70
2019-05-14T20:44:42.686Z,5.20
2019-05-14T20:47:12.019Z,5.50
2019-05-14T20:49:41.355Z,5.63
2019-05-14T20:52:10.954Z,5.83
2019-05-14T20:54:40.328Z,5.27
2019-05-14T20:57:23.399Z,5.63
2019-05-14T20:59:59.805Z,5.33
2019-05-14T21:02:29.576Z,5.37
2019-05-14T21:05:19.570Z,5.20
2019-05-14T21:07:49.388Z,6.00
2019-05-14T21:10:39.052Z,6.57
2019-05-14T21:13:08.754Z,5.57
2019-05-14T21:15:58.484Z,4.90
2019-05-14T21:18:35.254Z,5.37
2019-05-14T21:21:18.534Z,4.93
2019-05-14T21:23:58.837Z,5.60
2019-05-14T21:26:40.175Z,5.30
2019-05-14T21:29:15.557Z,5.20
2019-05-14T21:31:50.537Z,4.90
2019-05-14T21:34:19.857Z,5.17
2019-05-14T21:36:49.257Z,5.47
2019-05-14T21:39:18.958Z,5.13
2019-05-14T21:42:10.852Z,5.10
2019-05-14T21:44:58.920Z,4.90
2019-05-14T21:47:28.500Z,5.30
2019-05-14T21:50:18.589Z,5.90
2019-05-14T21:52:49.536Z,5.03
2019-05-14T21:55:38.916Z,5.70
2019-05-14T21:58:14.753Z,4.73
2019-05-14T22:04:18.693Z,5.60
2019-05-14T22:06:54.241Z,5.70
2019-05-14T22:09:23.569Z,5.67
2019-05-14T22:11:52.956Z,6.10
2019-05-14T22:14:22.269Z,5.50
2019-05-14T22:16:51.602Z,6.30
2019-05-14T22:19:20.907Z,6.40
2019-05-14T22:21:50.293Z,6.80
2019-05-14T22:24:21.089Z,5.40
2019-05-14T22:27:09.609Z,5.33
2019-05-14T22:29:32.374Z,5.10
2019-05-14T22:32:01.689Z,5.80
2019-05-14T22:34:30.999Z,5.50
2019-05-14T22:37:00.326Z,5.70
2019-05-14T22:39:29.635Z,5.70
2019-05-14T22:42:00.207Z,6.93
2019-05-14T22:44:50.454Z,5.63
2019-05-14T22:47:40.476Z,5.70
2019-05-14T22:50:18.276Z,5.50
2019-05-14T22:52:52.591Z,5.90
2019-05-14T22:55:21.920Z,6.23
2019-05-14T22:57:51.242Z,5.50
2019-05-14T23:00:21.119Z,5.40
2019-05-14T23:03:10.816Z,6.40
2019-05-14T23:05:40.138Z,6.10
2019-05-14T23:08:09.452Z,6.00
2019-05-14T23:10:39.046Z,5.83
2019-05-14T23:13:28.892Z,6.37
2019-05-14T23:15:58.847Z,6.27
2019-05-14T23:18:48.875Z,5.90
2019-05-14T23:21:24.760Z,6.00
2019-05-14T23:23:54.311Z,6.10
2019-05-14T23:26:23.629Z,5.60
2019-05-14T23:28:53.020Z,6.20
2019-05-14T23:31:22.683Z,5.90
2019-05-14T23:33:52.017Z,6.10
2019-05-14T23:36:21.402Z,5.90
2019-05-14T23:38:50.787Z,5.70
2019-05-14T23:41:20.118Z,6.27
2019-05-14T23:43:49.374Z,6.00
2019-05-14T23:46:31.000Z,6.43
2019-05-14T23:49:00.318Z,6.30
2019-05-14T23:51:29.648Z,6.37
2019-05-14T23:53:58.975Z,6.00
2019-05-14T23:56:28.862Z,6.00
2019-05-14T23:59:18.568Z,6.07
